Aérodrome :
LOGIN :

S'inscrire | Disclaimer

   EN    FR    IT 

 










Légende :    VFR   VFR Marginal   IFR   IFR Intensif   IFR Très Intensif
Visi : 
Plafond : 
>= 8 km
>= 3000ft
5 à 8 km
1000 à 3000 ft
1500m à 5 km
500 à 1000 ft
800 à 1500m
200 à 500 ft
< 800m
< 200 ft
Symboles :   Orages  Brouillard  Fortes neiges  Fortes précipitations  Vent > 20 kt
SIGMETs :   Divers  Orages  Givrage  Turbulence  Onde Orograph.  Cendres Volcan.






- Altitude de l'aérodrome : 26 ft
- Code IATA : GLA


EGPF - Glasgow

DERNIER METAR :
  • 020220Z AUTO 22014KT 5000 -RA BKN016 BKN025 OVC030 09/08 Q1019

METARs EXPIRÉS :
  • 020150Z AUTO 21008KT 9999 BKN016 OVC033 09/08 Q1019
  • 020120Z AUTO 22009KT 9999 SCT012 SCT020 OVC026 09/08 Q1020
  • 020050Z AUTO 25009KT 9999 OVC011 09/08 Q1020
  • 020020Z AUTO 24008KT 9999 SCT015 BKN024 BKN029 09/07 Q1021
  • 012350Z AUTO 23006KT 9999 BKN014 BKN020 OVC031 09/08 Q1021

TAF TAF EGPF
Valide du 02 à 00h jusqu'au 03 à 00h UTC


012255Z 0200/0224 23007KT 9999 BKN020
TEMPO 0200/0206 7000 -RA BKN010
PROB30
TEMPO 0200/0205 4000 DZRA BKN004
TEMPO 0208/0224 6000 SHRA BKN014
PROB30
TEMPO 0208/0215 25015G25KT 3000 +SHRAGS BKN009
PROB30
TEMPO 0215/0224 25015G25KT 3000 +SHRAGS SHRASN BKN006
ATIS : +44 141 887 7449



MET'MAP, la Météo Aéronautique d'un coup d'oeil ! - Copyright ORBIFLY Décembre 2007 - Disclaimer

ORBIFLY MET'MAP TEAM :

Programmation & Développement : Alexandra Zaïnal
Sur une idée originale de : Baudouin d'Aumeries
Assistance à la programmation : Marc-Olivier Méhu
Soutien technique & logistique : Manuel Goepfert

Contact : metmap@orbifly.com




SOURCES & CREDITS :

   NOAA